sensor_id;sensor_type;location;lat;lon;timestamp;pressure;altitude;pressure_sealevel;temperature;humidity
16255;BME280;8235;52.198;9.904;2023-02-28T00:00:16;102372.94;;;0.46;77.09
16255;BME280;8235;52.198;9.904;2023-02-28T00:02:44;102366.78;;;0.43;77.20
16255;BME280;8235;52.198;9.904;2023-02-28T00:05:12;102369.41;;;0.41;77.39
16255;BME280;8235;52.198;9.904;2023-02-28T00:07:39;102369.38;;;0.38;77.51
16255;BME280;8235;52.198;9.904;2023-02-28T00:10:10;102364.13;;;0.35;77.84
16255;BME280;8235;52.198;9.904;2023-02-28T00:12:37;102365.00;;;0.36;78.24
16255;BME280;8235;52.198;9.904;2023-02-28T00:15:06;102368.50;;;0.34;78.36
16255;BME280;8235;52.198;9.904;2023-02-28T00:17:32;102371.09;;;0.36;78.53
16255;BME280;8235;52.198;9.904;2023-02-28T00:19:59;102372.00;;;0.35;78.72
16255;BME280;8235;52.198;9.904;2023-02-28T00:22:35;102365.84;;;0.36;78.65
16255;BME280;8235;52.198;9.904;2023-02-28T00:25:02;102362.41;;;0.36;78.96
16255;BME280;8235;52.198;9.904;2023-02-28T00:27:30;102360.63;;;0.34;78.56
16255;BME280;8235;52.198;9.904;2023-02-28T00:29:57;102365.88;;;0.34;78.89
16255;BME280;8235;52.198;9.904;2023-02-28T00:32:24;102369.38;;;0.35;78.83
16255;BME280;8235;52.198;9.904;2023-02-28T00:34:50;102365.00;;;0.32;78.74
16255;BME280;8235;52.198;9.904;2023-02-28T00:37:18;102369.31;;;0.29;79.00
16255;BME280;8235;52.198;9.904;2023-02-28T00:39:44;102364.06;;;0.24;78.68
16255;BME280;8235;52.198;9.904;2023-02-28T00:42:11;102365.78;;;0.21;78.75
16255;BME280;8235;52.198;9.904;2023-02-28T00:44:39;102367.53;;;0.17;78.77
16255;BME280;8235;52.198;9.904;2023-02-28T00:47:05;102362.25;;;0.14;78.89
16255;BME280;8235;52.198;9.904;2023-02-28T00:49:32;102370.09;;;0.11;78.80
16255;BME280;8235;52.198;9.904;2023-02-28T00:51:58;102368.28;;;0.06;78.62
16255;BME280;8235;52.198;9.904;2023-02-28T00:54:25;102359.53;;;-0.01;78.60
16255;BME280;8235;52.198;9.904;2023-02-28T00:56:51;102366.47;;;-0.06;78.46
16255;BME280;8235;52.198;9.904;2023-02-28T00:59:18;102369.91;;;-0.12;78.57
16255;BME280;8235;52.198;9.904;2023-02-28T01:01:46;102369.88;;;-0.13;78.80
16255;BME280;8235;52.198;9.904;2023-02-28T01:04:13;102370.72;;;-0.17;79.01
16255;BME280;8235;52.198;9.904;2023-02-28T01:06:40;102367.22;;;-0.21;78.92
16255;BME280;8235;52.198;9.904;2023-02-28T01:09:07;102368.94;;;-0.23;79.01
16255;BME280;8235;52.198;9.904;2023-02-28T01:11:34;102372.41;;;-0.25;79.53
16255;BME280;8235;52.198;9.904;2023-02-28T01:14:01;102374.13;;;-0.29;79.08
16255;BME280;8235;52.198;9.904;2023-02-28T01:16:29;102373.22;;;-0.32;78.98
16255;BME280;8235;52.198;9.904;2023-02-28T01:18:57;102369.69;;;-0.38;78.95
16255;BME280;8235;52.198;9.904;2023-02-28T01:21:24;102366.16;;;-0.43;78.90
16255;BME280;8235;52.198;9.904;2023-02-28T01:23:51;102376.56;;;-0.47;78.97
16255;BME280;8235;52.198;9.904;2023-02-28T01:26:19;102375.66;;;-0.52;78.98
16255;BME280;8235;52.198;9.904;2023-02-28T01:28:47;102370.38;;;-0.58;79.24
16255;BME280;8235;52.198;9.904;2023-02-28T01:31:13;102369.47;;;-0.62;79.16
16255;BME280;8235;52.198;9.904;2023-02-28T01:33:40;102366.78;;;-0.66;79.23
16255;BME280;8235;52.198;9.904;2023-02-28T01:36:10;102366.75;;;-0.70;79.27
16255;BME280;8235;52.198;9.904;2023-02-28T01:38:37;102364.13;;;-0.74;79.45
16255;BME280;8235;52.198;9.904;2023-02-28T01:41:04;102372.81;;;-0.77;79.42
16255;BME280;8235;52.198;9.904;2023-02-28T01:43:39;102360.53;;;-0.81;79.74
16255;BME280;8235;52.198;9.904;2023-02-28T01:46:18;102361.38;;;-0.85;79.48
16255;BME280;8235;52.198;9.904;2023-02-28T01:48:48;102359.56;;;-0.89;79.58
16255;BME280;8235;52.198;9.904;2023-02-28T01:51:20;102352.56;;;-0.94;79.96
16255;BME280;8235;52.198;9.904;2023-02-28T01:53:51;102354.25;;;-0.98;79.97
16255;BME280;8235;52.198;9.904;2023-02-28T01:56:22;102347.22;;;-1.02;79.41
16255;BME280;8235;52.198;9.904;2023-02-28T01:58:50;102356.78;;;-1.06;79.50
16255;BME280;8235;52.198;9.904;2023-02-28T02:01:18;102369.81;;;-1.10;79.67
16255;BME280;8235;52.198;9.904;2023-02-28T02:03:47;102365.41;;;-1.14;79.60
16255;BME280;8235;52.198;9.904;2023-02-28T02:06:19;102362.66;;;-1.23;79.09
16255;BME280;8235;52.198;9.904;2023-02-28T02:08:45;102351.25;;;-1.31;78.77
16255;BME280;8235;52.198;9.904;2023-02-28T02:11:13;102353.78;;;-1.37;79.56
16255;BME280;8235;52.198;9.904;2023-02-28T02:13:58;102341.50;;;-1.43;79.56
16255;BME280;8235;52.198;9.904;2023-02-28T02:16:36;102348.44;;;-1.47;80.22
16255;BME280;8235;52.198;9.904;2023-02-28T02:19:16;102344.94;;;-1.49;79.84
16255;BME280;8235;52.198;9.904;2023-02-28T02:22:12;102338.78;;;-1.52;80.42
16255;BME280;8235;52.198;9.904;2023-02-28T02:25:10;102339.56;;;-1.58;80.18
16255;BME280;8235;52.198;9.904;2023-02-28T02:28:03;102336.91;;;-1.61;80.51
16255;BME280;8235;52.198;9.904;2023-02-28T02:30:45;102336.91;;;-1.64;80.63
16255;BME280;8235;52.198;9.904;2023-02-28T02:36:26;102329.00;;;-1.67;80.96
16255;BME280;8235;52.198;9.904;2023-02-28T02:38:59;102328.09;;;-1.69;81.25
16255;BME280;8235;52.198;9.904;2023-02-28T02:41:31;102333.31;;;-1.70;80.92
16255;BME280;8235;52.198;9.904;2023-02-28T02:44:03;102328.91;;;-1.73;81.00
16255;BME280;8235;52.198;9.904;2023-02-28T02:46:34;102326.25;;;-1.76;80.92
16255;BME280;8235;52.198;9.904;2023-02-28T02:49:08;102327.97;;;-1.78;81.07
16255;BME280;8235;52.198;9.904;2023-02-28T02:51:38;102320.97;;;-1.82;81.28
16255;BME280;8235;52.198;9.904;2023-02-28T02:54:08;102330.50;;;-1.84;81.47
16255;BME280;8235;52.198;9.904;2023-02-28T02:56:39;102333.09;;;-1.86;81.87
16255;BME280;8235;52.198;9.904;2023-02-28T02:59:09;102333.94;;;-1.88;81.99
16255;BME280;8235;52.198;9.904;2023-02-28T03:01:38;102338.22;;;-1.92;81.82
16255;BME280;8235;52.198;9.904;2023-02-28T03:04:10;102347.72;;;-1.98;81.39
16255;BME280;8235;52.198;9.904;2023-02-28T03:06:39;102336.25;;;-2.06;81.29
16255;BME280;8235;52.198;9.904;2023-02-28T03:09:06;102346.63;;;-2.11;81.26
16255;BME280;8235;52.198;9.904;2023-02-28T03:11:35;102337.88;;;-2.16;81.60
16255;BME280;8235;52.198;9.904;2023-02-28T03:14:25;102340.47;;;-2.18;81.53
16255;BME280;8235;52.198;9.904;2023-02-28T03:17:11;102338.66;;;-2.22;81.90
16255;BME280;8235;52.198;9.904;2023-02-28T03:19:47;102342.97;;;-2.24;81.88
16255;BME280;8235;52.198;9.904;2023-02-28T03:22:31;102339.44;;;-2.26;82.00
16255;BME280;8235;52.198;9.904;2023-02-28T03:25:06;102338.53;;;-2.28;82.09
16255;BME280;8235;52.198;9.904;2023-02-28T03:27:39;102344.59;;;-2.29;82.26
16255;BME280;8235;52.198;9.904;2023-02-28T03:30:11;102336.75;;;-2.30;82.03
16255;BME280;8235;52.198;9.904;2023-02-28T03:32:49;102342.78;;;-2.34;82.46
16255;BME280;8235;52.198;9.904;2023-02-28T03:35:22;102345.38;;;-2.36;82.69
16255;BME280;8235;52.198;9.904;2023-02-28T03:37:54;102343.59;;;-2.38;82.40
16255;BME280;8235;52.198;9.904;2023-02-28T03:40:25;102349.59;;;-2.42;82.26
16255;BME280;8235;52.198;9.904;2023-02-28T03:42:58;102349.53;;;-2.46;82.71
16255;BME280;8235;52.198;9.904;2023-02-28T03:45:29;102345.13;;;-2.51;82.37
16255;BME280;8235;52.198;9.904;2023-02-28T03:48:00;102352.03;;;-2.53;82.76
16255;BME280;8235;52.198;9.904;2023-02-28T03:50:34;102351.09;;;-2.57;83.13
16255;BME280;8235;52.198;9.904;2023-02-28T03:53:07;102350.22;;;-2.57;83.22
16255;BME280;8235;52.198;9.904;2023-02-28T03:55:39;102350.22;;;-2.57;83.41
16255;BME280;8235;52.198;9.904;2023-02-28T03:58:14;102355.41;;;-2.59;82.93
16255;BME280;8235;52.198;9.904;2023-02-28T04:00:45;102352.78;;;-2.60;83.46
16255;BME280;8235;52.198;9.904;2023-02-28T04:03:13;102352.75;;;-2.62;82.85
16255;BME280;8235;52.198;9.904;2023-02-28T04:05:47;102350.09;;;-2.63;83.59
16255;BME280;8235;52.198;9.904;2023-02-28T04:08:16;102352.72;;;-2.63;83.45
16255;BME280;8235;52.198;9.904;2023-02-28T04:10:45;102357.88;;;-2.66;83.40
16255;BME280;8235;52.198;9.904;2023-02-28T04:13:14;102357.00;;;-2.67;83.19
16255;BME280;8235;52.198;9.904;2023-02-28T04:15:40;102360.44;;;-2.69;83.43
16255;BME280;8235;52.198;9.904;2023-02-28T04:18:07;102352.56;;;-2.72;83.15
16255;BME280;8235;52.198;9.904;2023-02-28T04:20:34;102365.56;;;-2.74;83.18
16255;BME280;8235;52.198;9.904;2023-02-28T04:23:00;102355.06;;;-2.78;83.72
16255;BME280;8235;52.198;9.904;2023-02-28T04:25:28;102355.91;;;-2.80;83.48
16255;BME280;8235;52.198;9.904;2023-02-28T04:27:54;102361.09;;;-2.81;83.23
16255;BME280;8235;52.198;9.904;2023-02-28T04:30:21;102367.19;;;-2.81;83.84
16255;BME280;8235;52.198;9.904;2023-02-28T04:32:47;102368.88;;;-2.83;83.88
16255;BME280;8235;52.198;9.904;2023-02-28T04:35:14;102367.13;;;-2.84;83.74
16255;BME280;8235;52.198;9.904;2023-02-28T04:37:40;102361.03;;;-2.84;83.81
16255;BME280;8235;52.198;9.904;2023-02-28T04:40:08;102360.13;;;-2.85;84.22
16255;BME280;8235;52.198;9.904;2023-02-28T04:42:36;102367.97;;;-2.85;83.81
16255;BME280;8235;52.198;9.904;2023-02-28T04:45:03;102374.91;;;-2.85;84.34
16255;BME280;8235;52.198;9.904;2023-02-28T04:47:30;102372.28;;;-2.87;84.12
16255;BME280;8235;52.198;9.904;2023-02-28T04:49:56;102384.41;;;-2.89;84.10
16255;BME280;8235;52.198;9.904;2023-02-28T04:52:27;102380.91;;;-2.91;84.52
16255;BME280;8235;52.198;9.904;2023-02-28T04:54:53;102373.91;;;-2.93;84.64
16255;BME280;8235;52.198;9.904;2023-02-28T04:57:20;102371.28;;;-2.93;84.70
16255;BME280;8235;52.198;9.904;2023-02-28T04:59:48;102373.94;;;-2.92;84.74
16255;BME280;8235;52.198;9.904;2023-02-28T05:02:14;102375.69;;;-2.91;85.42
16255;BME280;8235;52.198;9.904;2023-02-28T05:04:40;102377.44;;;-2.90;85.12
16255;BME280;8235;52.198;9.904;2023-02-28T05:07:07;102376.59;;;-2.89;85.20
16255;BME280;8235;52.198;9.904;2023-02-28T05:09:34;102374.91;;;-2.87;85.38
16255;BME280;8235;52.198;9.904;2023-02-28T05:12:01;102374.91;;;-2.85;85.83
16255;BME280;8235;52.198;9.904;2023-02-28T05:14:27;102377.53;;;-2.84;85.79
16255;BME280;8235;52.198;9.904;2023-02-28T05:16:55;102375.00;;;-2.81;86.22
16255;BME280;8235;52.198;9.904;2023-02-28T05:19:21;102369.81;;;-2.79;86.39
16255;BME280;8235;52.198;9.904;2023-02-28T05:21:50;102375.94;;;-2.77;86.13
16255;BME280;8235;52.198;9.904;2023-02-28T05:24:17;102379.47;;;-2.75;86.50
16255;BME280;8235;52.198;9.904;2023-02-28T05:26:51;102368.19;;;-2.74;86.47
16255;BME280;8235;52.198;9.904;2023-02-28T05:29:18;102366.44;;;-2.73;86.54
16255;BME280;8235;52.198;9.904;2023-02-28T05:31:45;102372.56;;;-2.71;86.47
16255;BME280;8235;52.198;9.904;2023-02-28T05:34:12;102368.28;;;-2.69;86.69
16255;BME280;8235;52.198;9.904;2023-02-28T05:36:41;102364.78;;;-2.68;86.68
16255;BME280;8235;52.198;9.904;2023-02-28T05:39:08;102363.94;;;-2.67;87.07
16255;BME280;8235;52.198;9.904;2023-02-28T05:41:38;102361.31;;;-2.67;86.78
16255;BME280;8235;52.198;9.904;2023-02-28T05:44:05;102363.97;;;-2.66;86.92
16255;BME280;8235;52.198;9.904;2023-02-28T05:46:31;102368.31;;;-2.66;87.05
16255;BME280;8235;52.198;9.904;2023-02-28T05:48:58;102362.25;;;-2.65;86.76
16255;BME280;8235;52.198;9.904;2023-02-28T05:51:27;102363.97;;;-2.66;86.61
16255;BME280;8235;52.198;9.904;2023-02-28T05:53:54;102374.38;;;-2.67;87.19
16255;BME280;8235;52.198;9.904;2023-02-28T05:56:20;102369.16;;;-2.67;86.79
16255;BME280;8235;52.198;9.904;2023-02-28T05:58:46;102363.06;;;-2.69;86.95
16255;BME280;8235;52.198;9.904;2023-02-28T06:01:22;102354.34;;;-2.70;87.33
16255;BME280;8235;52.198;9.904;2023-02-28T06:03:48;102368.25;;;-2.71;87.07
16255;BME280;8235;52.198;9.904;2023-02-28T06:06:15;102366.47;;;-2.72;87.02
16255;BME280;8235;52.198;9.904;2023-02-28T06:08:43;102369.06;;;-2.73;86.86
16255;BME280;8235;52.198;9.904;2023-02-28T06:11:11;102368.16;;;-2.75;86.99
16255;BME280;8235;52.198;9.904;2023-02-28T06:13:37;102371.59;;;-2.76;86.91
16255;BME280;8235;52.198;9.904;2023-02-28T06:16:04;102374.22;;;-2.76;87.16
16255;BME280;8235;52.198;9.904;2023-02-28T06:18:31;102379.41;;;-2.78;87.20
16255;BME280;8235;52.198;9.904;2023-02-28T06:20:58;102392.44;;;-2.78;86.96
16255;BME280;8235;52.198;9.904;2023-02-28T06:23:24;102398.41;;;-2.84;87.29
16255;BME280;8235;52.198;9.904;2023-02-28T06:25:52;102394.00;;;-2.88;87.44
16255;BME280;8235;52.198;9.904;2023-02-28T06:28:22;102392.25;;;-2.89;87.44
16255;BME280;8235;52.198;9.904;2023-02-28T06:30:49;102395.72;;;-2.88;87.72
16255;BME280;8235;52.198;9.904;2023-02-28T06:33:15;102389.63;;;-2.89;87.66
16255;BME280;8235;52.198;9.904;2023-02-28T06:35:43;102397.44;;;-2.90;87.65
16255;BME280;8235;52.198;9.904;2023-02-28T06:38:10;102406.97;;;-2.91;87.77
16255;BME280;8235;52.198;9.904;2023-02-28T06:40:36;102412.16;;;-2.92;87.71
16255;BME280;8235;52.198;9.904;2023-02-28T06:43:04;102414.78;;;-2.91;87.83
16255;BME280;8235;52.198;9.904;2023-02-28T06:45:31;102407.84;;;-2.90;87.87
16255;BME280;8235;52.198;9.904;2023-02-28T06:47:57;102423.53;;;-2.89;87.55
16255;BME280;8235;52.198;9.904;2023-02-28T06:50:25;102421.75;;;-2.90;87.73
16255;BME280;8235;52.198;9.904;2023-02-28T06:52:54;102422.63;;;-2.91;87.96
16255;BME280;8235;52.198;9.904;2023-02-28T06:55:21;102427.88;;;-2.89;88.22
16255;BME280;8235;52.198;9.904;2023-02-28T06:57:47;102426.16;;;-2.87;88.29
16255;BME280;8235;52.198;9.904;2023-02-28T07:00:17;102427.03;;;-2.85;88.27
16255;BME280;8235;52.198;9.904;2023-02-28T07:02:44;102430.59;;;-2.82;88.32
16255;BME280;8235;52.198;9.904;2023-02-28T07:05:10;102425.44;;;-2.78;88.54
16255;BME280;8235;52.198;9.904;2023-02-28T07:07:37;102432.47;;;-2.76;88.54
16255;BME280;8235;52.198;9.904;2023-02-28T07:10:06;102442.06;;;-2.73;88.44
16255;BME280;8235;52.198;9.904;2023-02-28T07:12:33;102438.66;;;-2.71;89.01
16255;BME280;8235;52.198;9.904;2023-02-28T07:14:59;102436.06;;;-2.69;89.05
16255;BME280;8235;52.198;9.904;2023-02-28T07:17:27;102442.16;;;-2.67;88.64
16255;BME280;8235;52.198;9.904;2023-02-28T07:19:53;102443.09;;;-2.65;89.21
16255;BME280;8235;52.198;9.904;2023-02-28T07:22:20;102448.41;;;-2.61;89.04
16255;BME280;8235;52.198;9.904;2023-02-28T07:24:46;102437.16;;;-2.58;89.35
16255;BME280;8235;52.198;9.904;2023-02-28T07:27:13;102444.19;;;-2.54;89.13
16255;BME280;8235;52.198;9.904;2023-02-28T07:29:51;102450.38;;;-2.48;89.32
16255;BME280;8235;52.198;9.904;2023-02-28T07:32:17;102449.59;;;-2.43;90.08
16255;BME280;8235;52.198;9.904;2023-02-28T07:34:46;102454.91;;;-2.39;89.56
16255;BME280;8235;52.198;9.904;2023-02-28T07:37:12;102444.56;;;-2.34;89.58
16255;BME280;8235;52.198;9.904;2023-02-28T07:39:39;102445.50;;;-2.29;90.10
16255;BME280;8235;52.198;9.904;2023-02-28T07:42:07;102451.63;;;-2.27;90.00
16255;BME280;8235;52.198;9.904;2023-02-28T07:44:35;102455.22;;;-2.22;90.78
16255;BME280;8235;52.198;9.904;2023-02-28T07:47:05;102446.63;;;-2.17;90.57
16255;BME280;8235;52.198;9.904;2023-02-28T07:49:32;102450.16;;;-2.12;90.91
16255;BME280;8235;52.198;9.904;2023-02-28T07:52:00;102451.13;;;-2.06;90.73
16255;BME280;8235;52.198;9.904;2023-02-28T07:54:26;102447.72;;;-2.02;91.66
16255;BME280;8235;52.198;9.904;2023-02-28T07:56:53;102446.97;;;-1.94;92.09
16255;BME280;8235;52.198;9.904;2023-02-28T07:59:19;102441.97;;;-1.82;92.47
16255;BME280;8235;52.198;9.904;2023-02-28T08:01:46;102438.66;;;-1.70;92.62
16255;BME280;8235;52.198;9.904;2023-02-28T08:04:14;102439.72;;;-1.57;93.03
16255;BME280;8235;52.198;9.904;2023-02-28T08:06:41;102451.25;;;-1.45;93.70
16255;BME280;8235;52.198;9.904;2023-02-28T08:09:09;102456.69;;;-1.31;93.66
16255;BME280;8235;52.198;9.904;2023-02-28T08:11:36;102449.00;;;-1.19;93.38
16255;BME280;8235;52.198;9.904;2023-02-28T08:14:02;102444.81;;;-1.05;93.61
16255;BME280;8235;52.198;9.904;2023-02-28T08:16:29;102445.88;;;-0.92;93.53
16255;BME280;8235;52.198;9.904;2023-02-28T08:18:55;102434.72;;;-0.77;93.90
16255;BME280;8235;52.198;9.904;2023-02-28T08:21:22;102439.22;;;-0.62;93.31
16255;BME280;8235;52.198;9.904;2023-02-28T08:23:49;102441.97;;;-0.50;93.07
16255;BME280;8235;52.198;9.904;2023-02-28T08:26:17;102444.75;;;-0.38;92.61
16255;BME280;8235;52.198;9.904;2023-02-28T08:28:45;102443.13;;;-0.24;92.51
16255;BME280;8235;52.198;9.904;2023-02-28T08:31:14;102436.28;;;-0.10;91.96
16255;BME280;8235;52.198;9.904;2023-02-28T08:33:41;102450.38;;;0.06;91.78
16255;BME280;8235;52.198;9.904;2023-02-28T08:36:10;102458.34;;;0.20;91.35
16255;BME280;8235;52.198;9.904;2023-02-28T08:38:37;102437.50;;;0.32;90.77
16255;BME280;8235;52.198;9.904;2023-02-28T08:41:05;102447.19;;;0.45;90.09
16255;BME280;8235;52.198;9.904;2023-02-28T08:43:34;102443.75;;;0.57;89.31
16255;BME280;8235;52.198;9.904;2023-02-28T08:46:01;102449.97;;;0.69;88.85
16255;BME280;8235;52.198;9.904;2023-02-28T08:48:29;102448.28;;;0.81;88.07
16255;BME280;8235;52.198;9.904;2023-02-28T08:50:57;102448.31;;;0.90;87.11
16255;BME280;8235;52.198;9.904;2023-02-28T08:53:23;102452.75;;;1.00;85.73
16255;BME280;8235;52.198;9.904;2023-02-28T08:55:56;102462.41;;;1.10;85.36
16255;BME280;8235;52.198;9.904;2023-02-28T08:58:23;102455.47;;;1.21;84.00
16255;BME280;8235;52.198;9.904;2023-02-28T09:00:51;102446.72;;;1.28;83.04
16255;BME280;8235;52.198;9.904;2023-02-28T09:03:18;102451.16;;;1.38;81.74
16255;BME280;8235;52.198;9.904;2023-02-28T09:05:52;102448.53;;;1.45;80.48
16255;BME280;8235;52.198;9.904;2023-02-28T09:08:18;102452.94;;;1.50;80.23
16255;BME280;8235;52.198;9.904;2023-02-28T09:10:44;102452.97;;;1.58;78.98
16255;BME280;8235;52.198;9.904;2023-02-28T09:13:11;102451.22;;;1.66;79.05
16255;BME280;8235;52.198;9.904;2023-02-28T09:15:37;102453.88;;;1.78;78.58
16255;BME280;8235;52.198;9.904;2023-02-28T09:18:06;102457.41;;;1.89;77.77
16255;BME280;8235;52.198;9.904;2023-02-28T09:20:32;102453.00;;;2.00;77.13
16255;BME280;8235;52.198;9.904;2023-02-28T09:22:58;102461.81;;;2.12;76.25
16255;BME280;8235;52.198;9.904;2023-02-28T09:25:25;102451.25;;;2.19;76.00
16255;BME280;8235;52.198;9.904;2023-02-28T09:27:51;102452.16;;;2.29;75.34
16255;BME280;8235;52.198;9.904;2023-02-28T09:30:18;102455.63;;;2.34;73.87
16255;BME280;8235;52.198;9.904;2023-02-28T09:32:44;102459.16;;;2.42;73.75
16255;BME280;8235;52.198;9.904;2023-02-28T09:35:18;102460.00;;;2.53;73.82
16255;BME280;8235;52.198;9.904;2023-02-28T09:37:46;102460.00;;;2.59;73.23
16255;BME280;8235;52.198;9.904;2023-02-28T09:40:13;102458.25;;;2.66;72.87
16255;BME280;8235;52.198;9.904;2023-02-28T09:42:43;102463.47;;;2.70;71.95
16255;BME280;8235;52.198;9.904;2023-02-28T09:45:20;102454.72;;;2.76;71.55
16255;BME280;8235;52.198;9.904;2023-02-28T09:47:48;102461.72;;;2.85;71.21
16255;BME280;8235;52.198;9.904;2023-02-28T09:50:29;102457.28;;;2.91;70.27
16255;BME280;8235;52.198;9.904;2023-02-28T09:52:58;102462.56;;;2.97;69.68
16255;BME280;8235;52.198;9.904;2023-02-28T09:55:29;102460.78;;;3.04;69.64
16255;BME280;8235;52.198;9.904;2023-02-28T09:57:57;102467.75;;;3.11;69.18
16255;BME280;8235;52.198;9.904;2023-02-28T10:00:30;102460.72;;;3.13;68.98
16255;BME280;8235;52.198;9.904;2023-02-28T10:03:10;102460.72;;;3.13;67.68
16255;BME280;8235;52.198;9.904;2023-02-28T10:05:48;102466.88;;;3.13;68.00
16255;BME280;8235;52.198;9.904;2023-02-28T10:08:22;102454.59;;;3.16;67.04
16255;BME280;8235;52.198;9.904;2023-02-28T10:10:51;102458.09;;;3.14;66.84
16255;BME280;8235;52.198;9.904;2023-02-28T10:13:24;102458.09;;;3.18;67.31
16255;BME280;8235;52.198;9.904;2023-02-28T10:15:54;102454.53;;;3.25;67.41
16255;BME280;8235;52.198;9.904;2023-02-28T10:18:24;102460.66;;;3.34;66.68
16255;BME280;8235;52.198;9.904;2023-02-28T10:20:54;102461.47;;;3.42;67.13
16255;BME280;8235;52.198;9.904;2023-02-28T10:23:25;102467.59;;;3.47;66.05
16255;BME280;8235;52.198;9.904;2023-02-28T10:25:55;102455.28;;;3.53;65.84
16255;BME280;8235;52.198;9.904;2023-02-28T10:28:25;102456.97;;;3.63;66.29
16255;BME280;8235;52.198;9.904;2023-02-28T10:30:53;102452.53;;;3.74;66.04
16255;BME280;8235;52.198;9.904;2023-02-28T10:33:23;102448.06;;;3.79;65.45
16255;BME280;8235;52.198;9.904;2023-02-28T10:35:50;102448.94;;;3.81;65.13
16255;BME280;8235;52.198;9.904;2023-02-28T10:38:20;102450.69;;;3.85;65.06
16255;BME280;8235;52.198;9.904;2023-02-28T10:40:47;102445.38;;;3.91;65.24
16255;BME280;8235;52.198;9.904;2023-02-28T10:43:19;102446.19;;;3.99;65.37
16255;BME280;8235;52.198;9.904;2023-02-28T10:45:55;102447.91;;;4.06;65.05
16255;BME280;8235;52.198;9.904;2023-02-28T10:48:29;102445.16;;;4.15;65.05
16255;BME280;8235;52.198;9.904;2023-02-28T10:50:56;102450.41;;;4.20;64.57
16255;BME280;8235;52.198;9.904;2023-02-28T10:53:30;102441.56;;;4.29;64.31
16255;BME280;8235;52.198;9.904;2023-02-28T10:56:00;102440.63;;;4.34;64.18
16255;BME280;8235;52.198;9.904;2023-02-28T10:58:29;102448.50;;;4.39;63.20
16255;BME280;8235;52.198;9.904;2023-02-28T11:00:56;102441.44;;;4.42;63.12
16255;BME280;8235;52.198;9.904;2023-02-28T11:03:34;102441.41;;;4.47;63.07
16255;BME280;8235;52.198;9.904;2023-02-28T11:06:06;102436.94;;;4.52;62.87
16255;BME280;8235;52.198;9.904;2023-02-28T11:08:34;102438.66;;;4.56;63.00
16255;BME280;8235;52.198;9.904;2023-02-28T11:11:09;102439.44;;;4.66;62.48
16255;BME280;8235;52.198;9.904;2023-02-28T11:13:36;102427.94;;;4.71;62.18
16255;BME280;8235;52.198;9.904;2023-02-28T11:16:05;102434.00;;;4.82;62.88
16255;BME280;8235;52.198;9.904;2023-02-28T11:18:39;102421.53;;;4.92;62.40
16255;BME280;8235;52.198;9.904;2023-02-28T11:21:08;102429.38;;;5.00;61.92
16255;BME280;8235;52.198;9.904;2023-02-28T11:23:40;102426.63;;;5.09;61.20
16255;BME280;8235;52.198;9.904;2023-02-28T11:26:07;102418.69;;;5.10;60.00
16255;BME280;8235;52.198;9.904;2023-02-28T11:28:37;102421.28;;;5.13;59.16
16255;BME280;8235;52.198;9.904;2023-02-28T11:31:15;102412.44;;;5.17;59.34
16255;BME280;8235;52.198;9.904;2023-02-28T11:33:45;102409.81;;;5.16;58.54
16255;BME280;8235;52.198;9.904;2023-02-28T11:36:17;102414.25;;;5.12;58.73
16255;BME280;8235;52.198;9.904;2023-02-28T11:38:46;102408.09;;;5.12;58.98
16255;BME280;8235;52.198;9.904;2023-02-28T11:41:38;102402.81;;;5.12;58.83
16255;BME280;8235;52.198;9.904;2023-02-28T11:44:20;102401.94;;;5.11;58.77
16255;BME280;8235;52.198;9.904;2023-02-28T11:46:50;102399.31;;;5.10;57.44
16255;BME280;8235;52.198;9.904;2023-02-28T11:49:30;102392.19;;;5.16;57.85
16255;BME280;8235;52.198;9.904;2023-02-28T11:52:01;102396.56;;;5.19;57.59
16255;BME280;8235;52.198;9.904;2023-02-28T11:57:51;102390.19;;;5.34;57.63
16255;BME280;8235;52.198;9.904;2023-02-28T12:00:38;102392.81;;;5.35;56.38
16255;BME280;8235;52.198;9.904;2023-02-28T12:03:16;102382.25;;;5.35;54.95
16255;BME280;8235;52.198;9.904;2023-02-28T12:05:55;102393.69;;;5.37;54.18
16255;BME280;8235;52.198;9.904;2023-02-28T12:08:38;102384.00;;;5.36;52.85
16255;BME280;8235;52.198;9.904;2023-02-28T12:11:14;102375.19;;;5.37;52.58
16255;BME280;8235;52.198;9.904;2023-02-28T12:13:48;102369.94;;;5.34;52.30
16255;BME280;8235;52.198;9.904;2023-02-28T12:16:26;102380.47;;;5.37;52.97
16255;BME280;8235;52.198;9.904;2023-02-28T12:19:06;102368.94;;;5.40;52.86
16255;BME280;8235;52.198;9.904;2023-02-28T12:21:51;102370.66;;;5.45;52.81
16255;BME280;8235;52.198;9.904;2023-02-28T12:24:30;102376.69;;;5.53;53.85
16255;BME280;8235;52.198;9.904;2023-02-28T12:27:02;102370.44;;;5.59;53.33
16255;BME280;8235;52.198;9.904;2023-02-28T12:29:34;102373.03;;;5.62;53.10
16255;BME280;8235;52.198;9.904;2023-02-28T12:32:12;102363.38;;;5.59;52.75
16255;BME280;8235;52.198;9.904;2023-02-28T12:34:44;102363.38;;;5.59;53.05
16255;BME280;8235;52.198;9.904;2023-02-28T12:37:15;102355.44;;;5.61;53.00
16255;BME280;8235;52.198;9.904;2023-02-28T12:39:45;102353.59;;;5.66;52.58
16255;BME280;8235;52.198;9.904;2023-02-28T12:42:19;102361.44;;;5.72;52.76
16255;BME280;8235;52.198;9.904;2023-02-28T12:44:49;102357.84;;;5.75;52.67
16255;BME280;8235;52.198;9.904;2023-02-28T12:47:18;102360.44;;;5.78;52.22
16255;BME280;8235;52.198;9.904;2023-02-28T12:49:49;102350.66;;;5.83;52.58
16255;BME280;8235;52.198;9.904;2023-02-28T12:52:20;102345.31;;;5.89;52.85
16255;BME280;8235;52.198;9.904;2023-02-28T12:54:52;102340.06;;;5.84;51.78
16255;BME280;8235;52.198;9.904;2023-02-28T12:57:31;102338.31;;;5.83;51.84
16255;BME280;8235;52.198;9.904;2023-02-28T13:00:02;102341.88;;;5.81;51.61
16255;BME280;8235;52.198;9.904;2023-02-28T13:05:46;102346.47;;;5.71;50.88
16255;BME280;8235;52.198;9.904;2023-02-28T13:08:59;102330.13;;;5.46;50.31
16255;BME280;8235;52.198;9.904;2023-02-28T13:11:29;102333.72;;;5.39;50.46
16255;BME280;8235;52.198;9.904;2023-02-28T13:14:00;102332.06;;;5.34;50.97
16255;BME280;8235;52.198;9.904;2023-02-28T13:16:28;102324.22;;;5.28;51.08
16255;BME280;8235;52.198;9.904;2023-02-28T13:19:10;102328.66;;;5.26;51.17
16255;BME280;8235;52.198;9.904;2023-02-28T13:21:44;102319.03;;;5.20;51.20
16255;BME280;8235;52.198;9.904;2023-02-28T13:24:36;102322.63;;;5.17;51.34
16255;BME280;8235;52.198;9.904;2023-02-28T13:27:23;102318.22;;;5.18;51.51
16255;BME280;8235;52.198;9.904;2023-02-28T13:29:52;102313.84;;;5.17;51.58